createdAt,value
2019-01-04T00:00:41.378Z,0.00
2019-01-04T00:03:07.593Z,-0.20
2019-01-04T00:05:33.793Z,-0.10
2019-01-04T00:08:00.177Z,0.00
2019-01-04T00:10:26.400Z,0.00
2019-01-04T00:12:52.824Z,0.00
2019-01-04T00:15:19.061Z,0.00
2019-01-04T00:17:45.453Z,0.00
2019-01-04T00:20:11.870Z,-0.10
2019-01-04T00:22:39.654Z,0.00
2019-01-04T00:25:06.111Z,0.10
2019-01-04T00:27:32.526Z,0.00
2019-01-04T00:29:59.011Z,0.10
2019-01-04T00:32:25.230Z,0.10
2019-01-04T00:34:51.734Z,0.10
2019-01-04T00:37:18.170Z,0.20
2019-01-04T00:39:44.737Z,0.10
2019-01-04T00:42:11.208Z,0.00
2019-01-04T00:44:37.606Z,0.10
2019-01-04T00:47:03.937Z,0.00
2019-01-04T00:49:30.144Z,-0.10
2019-01-04T00:51:56.599Z,0.00
2019-01-04T00:54:22.912Z,-0.10
2019-01-04T00:57:13.126Z,0.00
2019-01-04T01:00:17.770Z,0.00
2019-01-04T01:03:07.385Z,0.10
2019-01-04T01:06:11.131Z,0.20
2019-01-04T01:09:10.237Z,0.30
2019-01-04T01:11:48.730Z,0.40
2019-01-04T01:17:07.889Z,0.30
2019-01-04T01:19:43.791Z,0.30
2019-01-04T01:22:22.934Z,0.20
2019-01-04T01:24:59.066Z,0.20
2019-01-04T01:27:47.564Z,0.10
2019-01-04T01:30:47.532Z,0.10
2019-01-04T01:33:34.505Z,0.10
2019-01-04T01:36:13.882Z,0.20
2019-01-04T01:39:18.142Z,0.20
2019-01-04T01:42:06.265Z,0.30
2019-01-04T01:44:54.437Z,0.40
2019-01-04T01:47:25.764Z,0.50
2019-01-04T01:50:13.894Z,0.50
2019-01-04T01:52:40.213Z,0.40
2019-01-04T01:55:06.427Z,0.40
2019-01-04T01:57:32.649Z,0.40
2019-01-04T02:00:26.284Z,0.40
2019-01-04T02:02:52.674Z,0.30
2019-01-04T02:05:19.195Z,0.20
2019-01-04T02:07:45.705Z,0.30
2019-01-04T02:10:12.233Z,0.40
2019-01-04T02:12:38.639Z,0.50
2019-01-04T02:15:05.802Z,0.50
2019-01-04T02:17:32.118Z,0.60
2019-01-04T02:19:58.530Z,0.60
2019-01-04T02:22:24.765Z,0.60
2019-01-04T02:24:50.997Z,0.70
2019-01-04T02:27:17.387Z,0.60
2019-01-04T02:29:44.989Z,0.60
2019-01-04T02:32:11.209Z,0.50
2019-01-04T02:34:37.548Z,0.40
2019-01-04T02:37:03.781Z,0.30
2019-01-04T02:39:30.167Z,0.10
2019-01-04T02:41:56.617Z,0.20
2019-01-04T02:44:22.954Z,0.30
2019-01-04T02:46:49.204Z,0.30
2019-01-04T02:49:15.424Z,0.40
2019-01-04T02:51:41.748Z,0.30
2019-01-04T02:54:09.381Z,0.30
2019-01-04T02:56:35.585Z,0.30
2019-01-04T02:59:23.687Z,0.40
2019-01-04T03:01:50.646Z,0.40
2019-01-04T03:04:17.062Z,0.50
2019-01-04T03:06:43.854Z,0.50
2019-01-04T03:09:10.065Z,0.50
2019-01-04T03:11:36.275Z,0.60
2019-01-04T03:14:02.605Z,0.50
2019-01-04T03:16:28.848Z,0.50
2019-01-04T03:18:55.069Z,0.60
2019-01-04T03:21:21.417Z,0.60
2019-01-04T03:23:47.645Z,0.50
2019-01-04T03:26:13.987Z,0.40
2019-01-04T03:28:40.777Z,0.40
2019-01-04T03:31:07.394Z,0.30
2019-01-04T03:33:33.831Z,0.40
2019-01-04T03:36:00.203Z,0.30
2019-01-04T03:38:26.398Z,0.40
2019-01-04T03:40:52.720Z,0.40
2019-01-04T03:43:18.961Z,0.40
2019-01-04T03:45:45.466Z,0.50
2019-01-04T03:48:11.661Z,0.40
2019-01-04T03:50:38.552Z,0.40
2019-01-04T03:53:04.964Z,0.50
2019-01-04T03:55:31.732Z,0.60
2019-01-04T03:57:57.974Z,0.60
2019-01-04T04:00:24.654Z,0.60
2019-01-04T04:02:50.982Z,0.70
2019-01-04T04:05:17.401Z,0.70
2019-01-04T04:08:03.476Z,0.70
2019-01-04T04:10:29.734Z,0.70
2019-01-04T04:12:56.044Z,0.60
2019-01-04T04:15:22.238Z,0.50
2019-01-04T04:17:49.010Z,0.50
2019-01-04T04:20:15.213Z,0.50
2019-01-04T04:22:41.434Z,0.50
2019-01-04T04:25:09.042Z,0.40
2019-01-04T04:27:35.251Z,0.50
2019-01-04T04:30:01.676Z,0.50
2019-01-04T04:32:47.758Z,0.50
2019-01-04T04:35:14.788Z,0.60
2019-01-04T04:37:41.006Z,0.70
2019-01-04T04:40:07.427Z,0.60
2019-01-04T04:42:33.871Z,0.60
2019-01-04T04:45:28.382Z,0.60
2019-01-04T04:47:56.173Z,0.70
2019-01-04T04:50:22.386Z,0.80
2019-01-04T04:52:48.657Z,0.80
2019-01-04T04:55:14.879Z,0.80
2019-01-04T04:57:42.031Z,0.80
2019-01-04T05:00:08.492Z,0.80
2019-01-04T05:02:34.713Z,0.70
2019-01-04T05:05:00.911Z,0.70
2019-01-04T05:07:27.540Z,0.70
2019-01-04T05:09:53.860Z,0.70
2019-01-04T05:12:20.218Z,0.80
2019-01-04T05:14:46.486Z,0.80
2019-01-04T05:17:12.669Z,0.90
2019-01-04T05:19:38.882Z,0.90
2019-01-04T05:22:05.106Z,1.00
2019-01-04T05:24:31.347Z,1.00
2019-01-04T05:27:17.731Z,0.90
2019-01-04T05:29:44.437Z,0.80
2019-01-04T05:32:10.691Z,0.70
2019-01-04T05:34:36.929Z,0.60
2019-01-04T05:37:03.139Z,0.60
2019-01-04T05:39:54.158Z,0.60
2019-01-04T05:42:20.371Z,0.60
2019-01-04T05:44:46.583Z,0.50
2019-01-04T05:47:13.779Z,0.40
2019-01-04T05:49:40.147Z,0.40
2019-01-04T05:52:06.391Z,0.50
2019-01-04T05:54:32.682Z,0.50
2019-01-04T05:56:58.905Z,0.50
2019-01-04T05:59:25.957Z,0.50
2019-01-04T06:01:52.412Z,0.50
2019-01-04T06:04:18.819Z,0.50
2019-01-04T06:07:11.082Z,0.50
2019-01-04T06:09:37.825Z,0.60
2019-01-04T06:12:04.013Z,0.70
2019-01-04T06:14:30.255Z,0.70
2019-01-04T06:16:56.481Z,0.80
2019-01-04T06:19:22.842Z,0.80
2019-01-04T06:21:50.152Z,0.70
2019-01-04T06:24:16.386Z,0.80
2019-01-04T06:26:42.610Z,0.70
2019-01-04T06:29:08.944Z,0.80
2019-01-04T06:31:35.257Z,0.70
2019-01-04T06:34:01.767Z,0.80
2019-01-04T06:36:27.997Z,0.70
2019-01-04T06:39:14.505Z,0.80
2019-01-04T06:41:40.875Z,0.80
2019-01-04T06:44:07.377Z,0.50
2019-01-04T06:46:37.428Z,0.60
2019-01-04T06:49:03.689Z,0.60
2019-01-04T06:51:30.003Z,0.70
2019-01-04T06:53:56.190Z,0.70
2019-01-04T06:56:23.538Z,0.80
2019-01-04T06:58:49.925Z,0.80
2019-01-04T07:01:16.937Z,0.80
2019-01-04T07:03:43.408Z,0.90
2019-01-04T07:06:09.721Z,0.70
2019-01-04T07:08:42.147Z,0.70
2019-01-04T07:11:28.874Z,0.50
2019-01-04T07:13:55.104Z,0.50
2019-01-04T07:16:21.317Z,0.50
2019-01-04T07:18:47.558Z,0.50
2019-01-04T07:21:13.806Z,0.50
2019-01-04T07:23:40.014Z,0.60
2019-01-04T07:26:06.469Z,0.70
2019-01-04T07:28:32.691Z,0.70
2019-01-04T07:30:59.403Z,0.80
2019-01-04T07:33:52.267Z,0.80
2019-01-04T07:36:18.581Z,0.80
2019-01-04T07:38:44.885Z,0.80
2019-01-04T07:41:11.295Z,0.80
2019-01-04T07:43:37.494Z,0.90
2019-01-04T07:46:03.832Z,0.90
2019-01-04T07:48:30.137Z,0.90
2019-01-04T07:50:56.374Z,0.80
2019-01-04T07:53:22.682Z,0.80
2019-01-04T07:55:49.046Z,0.90
2019-01-04T07:58:15.512Z,0.90
2019-01-04T08:00:41.811Z,0.90
2019-01-04T08:03:09.190Z,0.90
2019-01-04T08:05:35.388Z,0.80
2019-01-04T08:08:03.913Z,0.80
2019-01-04T08:10:31.876Z,0.90
2019-01-04T08:12:58.303Z,1.00
2019-01-04T08:15:24.495Z,1.20
2019-01-04T08:17:50.925Z,1.30
2019-01-04T08:20:17.222Z,1.40
2019-01-04T08:22:43.418Z,1.30
2019-01-04T08:25:09.737Z,1.40
2019-01-04T08:27:35.941Z,1.40
2019-01-04T08:30:04.987Z,1.40
2019-01-04T08:32:31.439Z,1.40
2019-01-04T08:34:58.349Z,1.20
2019-01-04T08:37:24.758Z,1.30
2019-01-04T08:39:50.962Z,1.30
2019-01-04T08:42:17.765Z,1.40
2019-01-04T08:44:44.070Z,1.40
2019-01-04T08:47:10.388Z,1.20
2019-01-04T08:49:36.957Z,1.30
2019-01-04T08:52:03.647Z,1.40
2019-01-04T08:54:30.035Z,1.40
2019-01-04T08:56:56.546Z,1.50
2019-01-04T08:59:22.810Z,1.60
2019-01-04T09:01:50.289Z,1.60
2019-01-04T09:04:18.296Z,1.60
2019-01-04T09:06:44.697Z,1.20
2019-01-04T09:09:11.654Z,1.20
2019-01-04T09:11:37.899Z,1.30
2019-01-04T09:14:04.833Z,1.30
2019-01-04T09:16:31.099Z,1.50
2019-01-04T09:18:57.810Z,1.50
2019-01-04T09:21:24.191Z,1.40
2019-01-04T09:23:52.644Z,1.60
2019-01-04T09:26:19.592Z,1.60
2019-01-04T09:28:45.930Z,1.70
2019-01-04T09:31:14.218Z,1.70
2019-01-04T09:33:40.725Z,1.80
2019-01-04T09:36:07.623Z,1.70
2019-01-04T09:38:33.965Z,1.70
2019-01-04T09:41:24.969Z,1.70
2019-01-04T09:43:51.239Z,1.50
2019-01-04T09:46:18.020Z,1.60
2019-01-04T09:48:44.378Z,1.70
2019-01-04T09:51:11.094Z,1.60
2019-01-04T09:53:39.713Z,1.50
2019-01-04T09:56:06.188Z,1.50
2019-01-04T09:58:33.789Z,1.40
2019-01-04T10:01:01.162Z,1.40
2019-01-04T10:03:27.600Z,1.40
2019-01-04T10:05:57.618Z,1.40
2019-01-04T10:08:24.353Z,1.60
2019-01-04T10:10:50.920Z,1.70
2019-01-04T10:13:18.168Z,1.80
2019-01-04T10:15:44.615Z,1.90
2019-01-04T10:18:11.051Z,1.80
2019-01-04T10:20:37.570Z,1.60
2019-01-04T10:23:03.803Z,1.80
2019-01-04T10:25:30.011Z,2.00
2019-01-04T10:27:56.242Z,2.10
2019-01-04T10:30:23.686Z,2.10
2019-01-04T10:32:50.061Z,2.00
2019-01-04T10:35:16.438Z,2.00
2019-01-04T10:37:43.287Z,2.20
2019-01-04T10:40:11.232Z,2.40
2019-01-04T10:42:38.641Z,2.30
2019-01-04T10:45:05.264Z,2.40
2019-01-04T10:47:31.507Z,2.30
2019-01-04T10:49:57.725Z,2.30
2019-01-04T10:52:24.122Z,2.30
2019-01-04T10:54:50.457Z,2.40
2019-01-04T10:57:16.720Z,2.50
2019-01-04T10:59:43.081Z,2.50
2019-01-04T11:02:09.393Z,2.50
2019-01-04T11:04:35.657Z,2.30
2019-01-04T11:07:02.423Z,2.30
2019-01-04T11:09:28.809Z,2.40
2019-01-04T11:11:55.063Z,2.50
2019-01-04T11:14:21.467Z,2.20
2019-01-04T11:16:47.772Z,2.10
2019-01-04T11:19:15.422Z,2.10
2019-01-04T11:21:41.723Z,1.90
2019-01-04T11:24:17.441Z,2.00
2019-01-04T11:26:49.472Z,2.20
2019-01-04T11:29:22.635Z,2.10
2019-01-04T11:31:52.718Z,2.30
2019-01-04T11:34:33.236Z,2.20
2019-01-04T11:37:24.501Z,2.20
2019-01-04T11:40:09.684Z,2.20
2019-01-04T11:43:05.765Z,2.10
2019-01-04T11:45:35.812Z,2.20
2019-01-04T11:48:18.111Z,2.30
2019-01-04T11:51:10.987Z,2.30
2019-01-04T11:53:37.292Z,2.40
2019-01-04T11:56:03.604Z,2.30
2019-01-04T11:58:29.838Z,2.30
2019-01-04T12:00:57.675Z,2.10
2019-01-04T12:03:24.562Z,2.00
2019-01-04T12:05:50.862Z,2.00
2019-01-04T12:08:17.277Z,2.10
2019-01-04T12:13:20.312Z,1.80
2019-01-04T12:15:46.591Z,2.00
2019-01-04T12:18:12.781Z,1.90
2019-01-04T12:20:39.027Z,1.90
2019-01-04T12:23:11.045Z,1.90
2019-01-04T12:25:35.289Z,1.90
2019-01-04T12:28:04.683Z,2.00
2019-01-04T12:30:31.090Z,1.70
2019-01-04T12:32:57.327Z,1.90
2019-01-04T12:35:24.767Z,1.90
2019-01-04T12:37:51.198Z,1.80
2019-01-04T12:40:17.389Z,1.60
2019-01-04T12:42:43.661Z,1.60
2019-01-04T12:45:09.976Z,1.60
2019-01-04T12:47:36.288Z,1.60
2019-01-04T12:50:06.091Z,1.60
2019-01-04T12:52:32.626Z,1.60
2019-01-04T12:54:58.825Z,1.70
2019-01-04T12:57:25.362Z,1.70
2019-01-04T12:59:51.683Z,1.80
2019-01-04T13:02:17.879Z,1.60
2019-01-04T13:04:44.126Z,1.60
2019-01-04T13:07:11.590Z,1.50
2019-01-04T13:09:38.225Z,1.50
2019-01-04T13:12:04.489Z,1.60
2019-01-04T13:14:30.712Z,1.60
2019-01-04T13:16:57.068Z,1.60
2019-01-04T13:19:25.796Z,1.60
2019-01-04T13:21:52.099Z,1.70
2019-01-04T13:24:18.310Z,1.70
2019-01-04T13:26:44.768Z,1.60
2019-01-04T13:29:11.688Z,1.60
